Schneifelwetter: Wetterstation Hallschlag, 537 m . NN
Wetterdaten: Sonntag, 08.03.2009
Datum Zeit Temp. A. Temp. 2 Feuchte A. Luftdruck Regen Wind Richtung Richtung Sonnenschein Helligkeit T Regen Taupunkt Windchill
08.03.2009 00:01 3,1 C 3,2 C 91 % 1010 hPa 0,0 l/m 25,1 km/h (4 Bft) S-SW45 200 0 min 0 lux 0,00 min 1,8 C -7,6 C
08.03.2009 00:16 3,1 C 3,1 C 92 % 1010 hPa 0,0 l/m 23,1 km/h (4 Bft) S-SW45 205 0 min 0 lux 0,00 min 1,9 C -6,8 C
08.03.2009 00:31 3,1 C 3,1 C 92 % 1010 hPa 0,0 l/m 20,3 km/h (4 Bft) S-SW45 205 0 min 0 lux 0,00 min 1,9 C -5,8 C
08.03.2009 00:46 3,0 C 2,9 C 92 % 1010 hPa 0,0 l/m 27,5 km/h (4 Bft) W-SW22.5 240 0 min 0 lux 0,00 min 1,8 C -8,5 C
08.03.2009 01:01 2,8 C 2,9 C 93 % 1010 hPa 0,0 l/m 30,6 km/h (5 Bft) SW22.5 220 0 min 0 lux 0,00 min 1,8 C -9,6 C
08.03.2009 01:16 2,9 C 3,0 C 93 % 1010 hPa 0,0 l/m 31,0 km/h (5 Bft) W-SW45 240 0 min 0 lux 0,00 min 1,9 C -9,6 C
08.03.2009 01:31 3,0 C 3,1 C 94 % 1009 hPa 0,0 l/m 31,9 km/h (5 Bft) SW45 215 0 min 0 lux 0,00 min 2,1 C -9,7 C
08.03.2009 01:46 3,1 C 3,2 C 93 % 1009 hPa 0,0 l/m 33,6 km/h (5 Bft) S-SW45 205 0 min 0 lux 0,00 min 2,1 C -10,0 C
08.03.2009 02:01 3,2 C 3,4 C 93 % 1009 hPa 0,0 l/m 35,7 km/h (5 Bft) SW45 230 0 min 0 lux 0,00 min 2,2 C -10,3 C
08.03.2009 02:16 3,3 C 3,4 C 93 % 1009 hPa 0,0 l/m 35,9 km/h (5 Bft) S-SW45 210 0 min 0 lux 0,00 min 2,3 C -10,2 C
08.03.2009 02:31 3,4 C 3,5 C 93 % 1008 hPa 0,0 l/m 24,0 km/h (4 Bft) S-SW45 210 0 min 0 lux 0,00 min 2,4 C -6,8 C
08.03.2009 02:46 3,4 C 3,6 C 94 % 1008 hPa 0,0 l/m 33,0 km/h (5 Bft) SW45 225 0 min 0 lux 0,00 min 2,5 C -9,4 C
08.03.2009 03:01 3,5 C 3,6 C 94 % 1008 hPa 0,0 l/m 36,4 km/h (5 Bft) SW45 235 0 min 0 lux 0,00 min 2,6 C -10,0 C
08.03.2009 03:16 3,5 C 3,8 C 95 % 1008 hPa 0,0 l/m 33,9 km/h (5 Bft) W-SW45 240 0 min 0 lux 0,00 min 2,8 C -9,5 C
08.03.2009 03:31 3,6 C 3,8 C 95 % 1008 hPa 0,0 l/m 36,9 km/h (5 Bft) W-SW22.5 240 0 min 0 lux 0,00 min 2,9 C -10,0 C
08.03.2009 03:46 3,7 C 3,9 C 95 % 1008 hPa 0,0 l/m 37,0 km/h (5 Bft) SW45 235 0 min 0 lux 0,00 min 3,0 C -9,9 C
08.03.2009 04:01 3,7 C 3,9 C 95 % 1007 hPa 0,0 l/m 31,3 km/h (5 Bft) W-SW22.5 240 0 min 0 lux 0,00 min 3,0 C -8,5 C
08.03.2009 04:16 3,7 C 3,7 C 96 % 1007 hPa 0,0 l/m 41,1 km/h (6 Bft) SW67.5 225 0 min 0 lux 0,00 min 3,1 C -10,6 C
08.03.2009 04:31 3,6 C 3,7 C 96 % 1007 hPa 0,0 l/m 32,2 km/h (5 Bft) SW45 235 0 min 0 lux 0,00 min 3,0 C -8,9 C
08.03.2009 04:46 3,5 C 3,6 C 96 % 1006 hPa 0,0 l/m 30,7 km/h (5 Bft) SW45 215 0 min 0 lux 0,00 min 2,9 C -8,7 C
08.03.2009 05:01 3,5 C 3,6 C 97 % 1006 hPa 0,0 l/m 32,4 km/h (5 Bft) W-SW67.5 240 0 min 0 lux 0,00 min 3,1 C -9,1 C
08.03.2009 05:16 3,5 C 3,6 C 97 % 1006 hPa 0,0 l/m 32,9 km/h (5 Bft) SW22.5 220 0 min 0 lux 0,00 min 3,1 C -9,2 C
08.03.2009 05:31 3,5 C 3,6 C 97 % 1006 hPa 0,0 l/m 26,6 km/h (4 Bft) SW45 230 0 min 0 lux 0,00 min 3,1 C -7,5 C
08.03.2009 05:46 3,5 C 3,6 C 98 % 1006 hPa 0,0 l/m 34,3 km/h (5 Bft) W-SW22.5 240 0 min 0 lux 0,00 min 3,2 C -9,6 C
08.03.2009 06:01 3,6 C 3,6 C 98 % 1006 hPa 0,0 l/m 31,2 km/h (5 Bft) SW45 235 0 min 0 lux 0,00 min 3,3 C -8,7 C
08.03.2009 06:16 3,6 C 3,6 C 99 % 1006 hPa 0,0 l/m 30,5 km/h (5 Bft) SW45 225 0 min 0 lux 0,00 min 3,5 C -8,5 C
08.03.2009 06:31 3,6 C 3,7 C 99 % 1006 hPa 0,0 l/m 30,7 km/h (5 Bft) W-SW22.5 240 0 min 0 lux 0,00 min 3,5 C -8,5 C
08.03.2009 06:46 3,7 C 3,7 C 99 % 1006 hPa 0,0 l/m 31,0 km/h (5 Bft) W-SW45 240 0 min 0 lux 0,00 min 3,6 C -8,5 C
08.03.2009 07:01 3,8 C 3,7 C 99 % 1006 hPa 0,0 l/m 33,7 km/h (5 Bft) SW45 235 0 min 71 lux 0,00 min 3,7 C -9,0 C
08.03.2009 07:16 3,8 C 3,8 C 99 % 1006 hPa 0,0 l/m 33,8 km/h (5 Bft) SW45 235 0 min 365 lux 0,00 min 3,7 C -9,0 C
08.03.2009 07:31 3,9 C 3,9 C 99 % 1006 hPa 0,3 l/m 31,8 km/h (5 Bft) SW67.5 225 0 min 1,32 klux 15,00 min 3,8 C -8,4 C
08.03.2009 07:46 3,9 C 4,0 C 99 % 1006 hPa 0,0 l/m 34,8 km/h (5 Bft) SW45 220 0 min 2,56 klux 0,00 min 3,8 C -9,1 C
08.03.2009 08:01 4,1 C 4,1 C 99 % 1005 hPa 0,0 l/m 35,5 km/h (5 Bft) SW45 215 0 min 2,63 klux 0,00 min 4,0 C -9,0 C
08.03.2009 08:16 4,1 C 4,1 C 99 % 1005 hPa 0,0 l/m 33,1 km/h (5 Bft) SW45 215 0 min 2,88 klux 0,00 min 4,0 C -8,4 C
08.03.2009 08:31 4,2 C 4,2 C 99 % 1005 hPa 0,0 l/m 28,0 km/h (4 Bft) SW67.5 225 0 min 2,17 klux 0,00 min 4,1 C -6,9 C
08.03.2009 08:46 4,2 C 4,3 C 99 % 1005 hPa 0,0 l/m 32,5 km/h (5 Bft) W-SW45 240 0 min 2,91 klux 0,00 min 4,1 C -8,1 C
08.03.2009 09:01 4,3 C 4,4 C 99 % 1005 hPa 0,0 l/m 31,6 km/h (5 Bft) W-SW22.5 240 0 min 2,32 klux 0,00 min 4,2 C -7,8 C
08.03.2009 09:16 4,3 C 4,4 C 99 % 1006 hPa 0,0 l/m 30,5 km/h (5 Bft) SW45 235 0 min 2,28 klux 0,00 min 4,2 C -7,5 C
08.03.2009 09:31 4,5 C 4,6 C 99 % 1005 hPa 0,3 l/m 35,4 km/h (5 Bft) SW22.5 215 0 min 5,19 klux 15,00 min 4,4 C -8,4 C
08.03.2009 09:46 4,6 C 4,6 C 99 % 1005 hPa 0,0 l/m 30,8 km/h (5 Bft) SW45 215 0 min 4,72 klux 0,00 min 4,5 C -7,1 C
08.03.2009 10:01 4,6 C 4,7 C 99 % 1005 hPa 0,0 l/m 29,8 km/h (5 Bft) SW45 220 0 min 6,33 klux 0,00 min 4,5 C -6,9 C
08.03.2009 10:16 4,7 C 4,8 C 99 % 1005 hPa 0,0 l/m 27,3 km/h (4 Bft) S-SW45 210 0 min 6,02 klux 0,00 min 4,6 C -6,1 C
08.03.2009 10:31 4,9 C 5,0 C 99 % 1005 hPa 0,3 l/m 30,7 km/h (5 Bft) SW45 235 0 min 9,6 klux 15,00 min 4,8 C -6,7 C
08.03.2009 10:45 5,2 C 5,2 C 99 % 1005 hPa 0,3 l/m 31,6 km/h (5 Bft) S-SW45 210 0 min 9,8 klux 14,00 min 5,1 C -6,5 C
08.03.2009 11:01 5,4 C 5,4 C 99 % 1005 hPa 0,3 l/m 30,5 km/h (5 Bft) SW45 225 0 min 13,9 klux 16,00 min 5,3 C -5,9 C
08.03.2009 11:16 5,6 C 5,5 C 99 % 1005 hPa 0,0 l/m 43,2 km/h (6 Bft) SW45 235 0 min 15,6 klux 0,00 min 5,5 C -8,2 C
08.03.2009 11:31 5,8 C 5,7 C 99 % 1005 hPa 0,0 l/m 40,5 km/h (6 Bft) W-SW45 245 0 min 16,1 klux 0,00 min 5,7 C -7,4 C
08.03.2009 11:46 5,8 C 5,7 C 99 % 1005 hPa 0,0 l/m 44,0 km/h (6 Bft) W-SW45 240 0 min 14,9 klux 0,00 min 5,7 C -8,0 C
08.03.2009 12:01 5,7 C 5,6 C 99 % 1005 hPa 0,0 l/m 38,5 km/h (5 Bft) W-SW22.5 245 0 min 9,2 klux 0,00 min 5,6 C -7,2 C
08.03.2009 12:16 5,7 C 5,6 C 99 % 1005 hPa 0,0 l/m 33,1 km/h (5 Bft) SW45 225 0 min 10,6 klux 0,00 min 5,6 C -6,1 C
08.03.2009 12:30 5,9 C 5,8 C 99 % 1005 hPa 0,0 l/m 39,1 km/h (6 Bft) SW45 225 0 min 20,8 klux 0,00 min 5,8 C -7,0 C
08.03.2009 12:46 6,3 C 6,1 C 99 % 1004 hPa 0,0 l/m 40,8 km/h (6 Bft) W-SW45 240 0 min 22,3 klux 0,00 min 6,2 C -6,7 C
08.03.2009 13:01 6,4 C 6,2 C 98 % 1004 hPa 0,0 l/m 36,3 km/h (5 Bft) W-SW22.5 240 0 min 19,0 klux 0,00 min 6,1 C -5,8 C
08.03.2009 13:16 6,4 C 6,2 C 97 % 1004 hPa 0,0 l/m 36,9 km/h (5 Bft) W-SW45 240 0 min 16,3 klux 0,00 min 6,0 C -5,9 C
08.03.2009 13:31 6,3 C 6,2 C 98 % 1004 hPa 4,8 l/m 30,7 km/h (5 Bft) W-SW45 240 0 min 11,5 klux 15,00 min 6,0 C -4,7 C
08.03.2009 13:46 6,5 C 6,3 C 98 % 1004 hPa 0,3 l/m 29,9 km/h (5 Bft) W-SW45 240 0 min 13,2 klux 15,00 min 6,2 C -4,2 C
08.03.2009 14:01 6,5 C 6,4 C 98 % 1003 hPa 0,0 l/m 32,8 km/h (5 Bft) W-SW45 250 0 min 20,8 klux 0,00 min 6,2 C -4,9 C
08.03.2009 14:16 6,6 C 6,4 C 98 % 1003 hPa 0,3 l/m 31,4 km/h (5 Bft) W-SW22.5 250 0 min 12,9 klux 15,00 min 6,3 C -4,5 C
08.03.2009 14:30 6,4 C 6,2 C 98 % 1004 hPa 0,0 l/m 31,9 km/h (5 Bft) W-SW22.5 250 0 min 13,7 klux 0,00 min 6,1 C -4,9 C
08.03.2009 14:46 6,4 C 6,2 C 98 % 1003 hPa 0,0 l/m 32,0 km/h (5 Bft) W-SW22.5 250 0 min 15,9 klux 0,00 min 6,1 C -4,9 C
08.03.2009 15:01 6,2 C 6,0 C 97 % 1003 hPa 0,0 l/m 36,6 km/h (5 Bft) W45 260 0 min 9,3 klux 0,00 min 5,8 C -6,1 C
08.03.2009 15:16 6,2 C 6,0 C 97 % 1003 hPa 1,8 l/m 23,0 km/h (4 Bft) W45 265 0 min 12,2 klux 15,00 min 5,8 C -2,7 C
08.03.2009 15:31 6,0 C 5,8 C 96 % 1003 hPa 0,0 l/m 37,1 km/h (5 Bft) W-SW22.5 250 0 min 12,7 klux 0,00 min 5,4 C -6,5 C
08.03.2009 15:46 5,8 C 5,7 C 95 % 1003 hPa 0,3 l/m 31,6 km/h (5 Bft) W-SW45 250 0 min 13,8 klux 15,00 min 5,1 C -5,6 C
08.03.2009 16:01 5,9 C 5,7 C 96 % 1003 hPa 0,0 l/m 29,6 km/h (5 Bft) W-SW45 250 0 min 16,2 klux 0,00 min 5,3 C -5,0 C
08.03.2009 16:15 5,9 C 5,8 C 96 % 1003 hPa 0,0 l/m 23,6 km/h (4 Bft) W22.5 260 0 min 11,9 klux 0,00 min 5,3 C -3,3 C
08.03.2009 16:31 5,8 C 5,8 C 96 % 1003 hPa 0,0 l/m 28,2 km/h (4 Bft) W-SW22.5 255 0 min 7,01 klux 0,00 min 5,2 C -4,8 C
08.03.2009 16:46 5,6 C 5,7 C 95 % 1003 hPa 0,0 l/m 28,0 km/h (4 Bft) W45 260 0 min 8,25 klux 0,00 min 4,9 C -5,0 C
08.03.2009 17:01 5,2 C 5,4 C 96 % 1003 hPa 0,0 l/m 28,6 km/h (4 Bft) W22.5 260 0 min 5,47 klux 0,00 min 4,6 C -5,7 C
08.03.2009 17:16 5,2 C 5,4 C 96 % 1003 hPa 0,0 l/m 17,8 km/h (3 Bft) W22.5 260 0 min 8,46 klux 0,00 min 4,6 C -2,0 C
08.03.2009 17:31 5,2 C 5,5 C 96 % 1003 hPa 0,0 l/m 21,8 km/h (4 Bft) W-SW22.5 255 0 min 11,3 klux 0,00 min 4,6 C -3,6 C
08.03.2009 17:46 4,9 C 6,0 C 96 % 1003 hPa 0,0 l/m 23,9 km/h (4 Bft) W-SW22.5 255 0 min 5,37 klux 0,00 min 4,3 C -4,7 C
08.03.2009 18:01 4,5 C 5,7 C 95 % 1002 hPa 0,0 l/m 18,1 km/h (3 Bft) W-SW22.5 255 0 min 13,5 klux 0,00 min 3,8 C -3,0 C
08.03.2009 18:15 4,2 C 4,2 C 94 % 1002 hPa 0,0 l/m 37,4 km/h (5 Bft) W-SW45 250 0 min 6,41 klux 0,00 min 3,3 C -9,2 C
08.03.2009 18:31 3,4 C 3,4 C 94 % 1002 hPa 0,0 l/m 30,7 km/h (5 Bft) W-SW22.5 255 0 min 1,68 klux 0,00 min 2,5 C -8,8 C
08.03.2009 18:46 3,0 C 2,8 C 95 % 1002 hPa 0,0 l/m 23,0 km/h (4 Bft) W45 260 0 min 333 lux 0,00 min 2,3 C -6,9 C
08.03.2009 19:01 2,4 C 2,2 C 95 % 1002 hPa 0,0 l/m 15,8 km/h (3 Bft) W-SW22.5 245 0 min 47 lux 0,00 min 1,7 C -4,5 C
08.03.2009 19:16 2,1 C 1,9 C 96 % 1003 hPa 0,0 l/m 17,1 km/h (3 Bft) W-SW22.5 250 0 min 4 lux 0,00 min 1,5 C -5,6 C
08.03.2009 19:31 1,8 C 1,5 C 96 % 1003 hPa 0,0 l/m 18,3 km/h (3 Bft) W-SW45 255 0 min 0 lux 0,00 min 1,2 C -6,5 C
08.03.2009 19:46 1,5 C 1,2 C 96 % 1003 hPa 0,0 l/m 16,5 km/h (3 Bft) W-SW22.5 250 0 min 0 lux 0,00 min 0,9 C -6,0 C
08.03.2009 20:00 1,3 C 1,0 C 97 % 1002 hPa 0,0 l/m 22,9 km/h (4 Bft) W-SW22.5 250 0 min 0 lux 0,00 min 0,9 C -9,2 C
08.03.2009 20:16 1,2 C 0,7 C 96 % 1003 hPa 0,0 l/m 19,0 km/h (3 Bft) W-SW22.5 245 0 min 0 lux 0,00 min 0,6 C -7,6 C
08.03.2009 20:31 0,9 C 0,5 C 96 % 1002 hPa 0,0 l/m 23,1 km/h (4 Bft) W-SW22.5 245 0 min 0 lux 0,00 min 0,3 C -9,8 C
08.03.2009 20:46 0,7 C 0,3 C 96 % 1003 hPa 0,0 l/m 19,9 km/h (4 Bft) W-SW22.5 245 0 min 0 lux 0,00 min 0,1 C -8,7 C
08.03.2009 21:01 0,5 C 0,0 C 96 % 1002 hPa 0,0 l/m 11,7 km/h (2 Bft) W-SW22.5 245 0 min 0 lux 0,00 min -0,1 C -4,2 C
08.03.2009 21:16 0,3 C -0,1 C 96 % 1002 hPa 0,0 l/m 17,1 km/h (3 Bft) W-SW22.5 250 0 min 0 lux 0,00 min -0,3 C -7,8 C
08.03.2009 21:31 0,3 C -0,2 C 97 % 1002 hPa 0,0 l/m 13,6 km/h (3 Bft) W-SW22.5 250 0 min 0 lux 0,00 min -0,1 C -5,7 C
08.03.2009 21:45 0,2 C -0,2 C 97 % 1002 hPa 0,0 l/m 15,2 km/h (3 Bft) W-SW45 240 0 min 0 lux 0,00 min -0,2 C -6,9 C
08.03.2009 22:01 0,5 C 0,3 C 98 % 1002 hPa 0,0 l/m 17,0 km/h (3 Bft) W-SW22.5 245 0 min 0 lux 0,00 min 0,2 C -7,5 C
08.03.2009 22:16 0,9 C 0,5 C 98 % 1002 hPa 0,0 l/m 26,6 km/h (4 Bft) W-SW22.5 250 0 min 0 lux 0,00 min 0,6 C -11,1 C
08.03.2009 22:31 1,1 C 0,9 C 98 % 1002 hPa 0,0 l/m 26,0 km/h (4 Bft) W-SW22.5 250 0 min 0 lux 0,00 min 0,8 C -10,6 C
08.03.2009 22:46 1,2 C 1,0 C 97 % 1002 hPa 0,0 l/m 38,5 km/h (5 Bft) W-SW45 250 0 min 0 lux 0,00 min 0,8 C -13,8 C
08.03.2009 23:01 1,2 C 1,1 C 96 % 1002 hPa 0,0 l/m 30,8 km/h (5 Bft) W22.5 260 0 min 0 lux 0,00 min 0,6 C -12,0 C
08.03.2009 23:16 1,2 C 1,2 C 96 % 1002 hPa 0,0 l/m 33,9 km/h (5 Bft) W-SW22.5 255 0 min 0 lux 0,00 min 0,6 C -12,8 C
08.03.2009 23:31 1,2 C 1,2 C 95 % 1002 hPa 0,0 l/m 41,8 km/h (6 Bft) W45 265 0 min 0 lux 0,00 min 0,5 C -14,5 C
08.03.2009 23:46 1,0 C 0,9 C 92 % 1003 hPa 0,0 l/m 49,5 km/h (6 Bft) W67.5 260 0 min 0 lux 0,00 min -0,2 C -16,1 C
_ Min-Zeit 21:45 21:31 00:01 18:01 - 21:01 - - - - - 21:16 23:46
Minimum _ 0,2 C -0,2 C 91 % 1002 hPa - 11,7 km/h (2 Bft) - - - - - -0,3 C -16,1 C
_ Max-Zeit 14:16 14:01 06:16 00:01 13:31 23:46 - - 00:01 12:46 11:01 14:16 17:16
Maximum _ 6,6 C 6,4 C 99 % 1010 hPa 4,8 l/m 49,5 km/h
W (6 Bft)
- - 0 min 22,3 klux 16,00 min 6,3 C -2,0 C
Durchschnitt _ 3,8 C 3,8 C 97 % 1005 hPa #9,0 l/m 30,0 km/h (5 Bft) W-SW - #0 min. 4,71 klux #2:30 h 3,3 C -7,7 C